Time;durP1;ratioP1;P1;durP2;ratioP2;P2;SDS_P1;SDS_P2;PMS_P1;PMS_P2;Temp;Humidity;BMP_temperature;BMP_pressure;BME280_temperature;BME280_humidity;BME280_pressure;Samples;Min_cycle;Max_cycle;Signal;HPM_P1;HPM_P2
2022/05/13 07:54:53;;;;;;;1.58;0.63;;;21.70;97.20;;;;;;4967654;23;20290;-66
2022/05/13 07:57:20;;;;;;;2.60;0.88;;;22.20;96.80;;;;;;4952101;28;20684;-69
2022/05/13 08:02:31;;;;;;;2.08;0.60;;;22.10;96.20;;;;;;4954558;28;20642;-68
2022/05/13 08:04:58;;;;;;;6.03;0.90;;;22.00;96.60;;;;;;4954332;28;20247;-67
2022/05/13 08:07:25;;;;;;;3.78;0.60;;;22.00;95.90;;;;;;4954290;28;20295;-68
2022/05/13 08:09:53;;;;;;;6.38;0.95;;;22.60;95.50;;;;;;4954101;28;20238;-70
2022/05/13 08:12:20;;;;;;;1.85;0.52;;;22.40;95.50;;;;;;4953730;28;20232;-72
2022/05/13 08:14:47;;;;;;;3.25;0.80;;;22.60;95.60;;;;;;4951896;28;20246;-72
2022/05/13 08:17:14;;;;;;;2.67;0.88;;;22.80;95.00;;;;;;4954301;28;20218;-73
2022/05/13 08:19:41;;;;;;;3.25;0.77;;;23.30;94.40;;;;;;4954411;28;20212;-71
2022/05/13 08:22:08;;;;;;;4.47;1.05;;;23.60;93.40;;;;;;4953386;28;20228;-70
2022/05/13 08:24:35;;;;;;;4.38;1.00;;;22.80;94.40;;;;;;4954139;28;20211;-71
2022/05/13 08:27:03;;;;;;;3.63;0.80;;;22.80;94.90;;;;;;4953633;28;20670;-70
2022/05/13 08:29:30;;;;;;;3.65;0.68;;;23.10;94.30;;;;;;4953648;28;20204;-70
2022/05/13 08:31:56;;;;;;;1.88;0.60;;;23.40;94.50;;;;;;4953851;28;20228;-74
2022/05/13 08:34:23;;;;;;;3.10;0.70;;;23.40;94.00;;;;;;4953744;28;20567;-72
2022/05/13 08:36:50;;;;;;;3.28;0.70;;;23.40;93.50;;;;;;4953367;28;20211;-71
2022/05/13 08:39:17;;;;;;;1.35;0.80;;;23.40;93.20;;;;;;4953938;28;20240;-73
2022/05/13 08:41:58;;;;;;;3.83;0.65;;;23.40;93.20;;;;;;4953817;28;20728;-70
2022/05/13 08:44:27;;;;;;;2.88;0.90;;;23.60;93.70;;;;;;4953134;28;20216;-73
2022/05/13 08:47:03;;;;;;;2.60;0.65;;;23.80;92.90;;;;;;4953675;28;20211;-70
2022/05/13 08:49:35;;;;;;;3.38;0.70;;;23.40;93.10;;;;;;4953776;28;20215;-71
2022/05/13 08:55:06;;;;;;;0.93;0.63;;;23.50;92.90;;;;;;4953409;28;20222;-71
2022/05/13 08:57:38;;;;;;;5.75;0.57;;;23.60;92.90;;;;;;4953438;28;20688;-72
2022/05/13 09:00:11;;;;;;;3.42;0.75;;;23.70;92.60;;;;;;4953269;28;20670;-70
2022/05/13 09:02:39;;;;;;;1.80;0.60;;;23.60;92.50;;;;;;4954079;28;20228;-72
2022/05/13 09:05:20;;;;;;;2.47;0.60;;;23.30;91.60;;;;;;4953434;28;20223;-73
2022/05/13 09:07:50;;;;;;;3.20;0.68;;;23.20;92.80;;;;;;4953156;28;20555;-71
2022/05/13 09:10:18;;;;;;;1.80;0.50;;;22.80;93.30;;;;;;4953261;28;20702;-71
2022/05/13 09:12:50;;;;;;;1.55;0.40;;;22.80;91.90;;;;;;4953539;28;20239;-72
2022/05/13 09:15:22;;;;;;;1.98;0.40;;;22.80;91.60;;;;;;4952784;28;20240;-73
2022/05/13 09:18:01;;;;;;;0.98;0.43;;;23.50;91.70;;;;;;4953498;28;20212;-73
2022/05/13 09:20:28;;;;;;;3.40;0.55;;;23.50;90.50;;;;;;4953178;28;20567;-73
2022/05/13 09:22:58;;;;;;;2.67;0.60;;;22.90;90.90;;;;;;4952752;28;20208;-73
2022/05/13 09:25:28;;;;;;;1.77;0.65;;;21.60;91.70;;;;;;4952932;28;20208;-73
2022/05/13 09:27:59;;;;;;;0.93;0.40;;;21.50;92.30;;;;;;4953498;28;20208;-73
2022/05/13 09:30:34;;;;;;;2.63;0.60;;;20.90;92.60;;;;;;4953036;28;20286;-70
2022/05/13 09:33:19;;;;;;;2.42;0.40;;;20.70;93.10;;;;;;4953415;28;20552;-72
2022/05/13 09:35:48;;;;;;;0.60;0.40;;;20.30;93.30;;;;;;4952417;28;20671;-70
2022/05/13 09:38:17;;;;;;;2.50;0.68;;;20.70;94.20;;;;;;4953118;28;20243;-69
2022/05/13 09:40:57;;;;;;;4.65;0.50;;;20.60;93.30;;;;;;4952692;28;20904;-71
2022/05/13 09:43:34;;;;;;;2.85;0.55;;;20.00;93.80;;;;;;4952418;28;20210;-72
2022/05/13 09:46:09;;;;;;;2.40;0.50;;;19.80;93.90;;;;;;4953395;28;20204;-72
2022/05/13 09:48:39;;;;;;;2.33;0.63;;;20.00;93.20;;;;;;4953354;28;20234;-72
2022/05/13 09:51:23;;;;;;;0.55;0.40;;;19.90;94.10;;;;;;4952709;28;20244;-71
2022/05/13 09:54:13;;;;;;;4.65;0.80;;;20.10;94.10;;;;;;4953254;28;20208;-71
2022/05/13 09:56:43;;;;;;;2.60;0.57;;;19.90;94.30;;;;;;4957672;28;20682;-73
2022/05/13 09:59:17;;;;;;;1.45;0.43;;;19.90;94.10;;;;;;4952704;28;20208;-73
2022/05/13 10:01:45;;;;;;;2.60;0.57;;;19.80;94.50;;;;;;4953097;28;20235;-73
2022/05/13 10:04:14;;;;;;;2.03;0.85;;;19.90;94.80;;;;;;4953163;28;20544;-74
2022/05/13 10:06:43;;;;;;;0.82;0.35;;;20.10;94.80;;;;;;4952579;28;20215;-72
2022/05/13 10:15:08;;;;;;;1.60;0.50;;;19.90;94.40;;;;;;4956229;28;20215;-74
2022/05/13 10:17:45;;;;;;;1.13;0.40;;;19.90;94.40;;;;;;4956015;28;20219;-73
2022/05/13 10:20:19;;;;;;;1.90;0.40;;;20.00;94.40;;;;;;4956327;28;20301;-74
2022/05/13 10:22:53;;;;;;;0.68;0.50;;;20.30;94.60;;;;;;4956371;28;20238;-71
2022/05/13 10:25:25;;;;;;;2.53;0.50;;;20.40;93.80;;;;;;4956254;28;20255;-72
2022/05/13 10:27:57;;;;;;;3.83;0.50;;;20.40;94.00;;;;;;4955838;28;20223;-74
2022/05/13 10:30:34;;;;;;;2.97;0.50;;;20.10;93.60;;;;;;4956493;28;20242;-73
2022/05/13 10:33:06;;;;;;;0.63;0.40;;;20.10;94.10;;;;;;4956156;28;20211;-72
2022/05/13 10:35:50;;;;;;;2.47;0.95;;;20.30;93.70;;;;;;4955334;28;20212;-73
2022/05/13 10:38:23;;;;;;;4.35;0.60;;;20.40;93.50;;;;;;4952999;28;20238;-73
2022/05/13 10:40:51;;;;;;;4.43;0.60;;;20.10;93.50;;;;;;4959661;28;20231;-73
2022/05/13 10:43:23;;;;;;;2.30;0.57;;;19.90;93.80;;;;;;4975330;28;20207;-73
2022/05/13 10:45:52;;;;;;;3.45;0.55;;;20.10;94.40;;;;;;4975011;28;20215;-72
2022/05/13 10:48:27;;;;;;;0.95;0.32;;;20.30;93.30;;;;;;4967265;28;20694;-74
2022/05/13 10:51:07;;;;;;;1.52;0.47;;;20.50;93.50;;;;;;4955645;28;20235;-74
2022/05/13 10:53:55;;;;;;;1.75;0.40;;;20.30;93.20;;;;;;4955871;28;20212;-75
2022/05/13 10:56:31;;;;;;;4.90;0.80;;;20.40;94.10;;;;;;4954968;28;20319;-73
2022/05/13 10:59:14;;;;;;;2.75;0.40;;;20.70;93.30;;;;;;4955769;28;20214;-72
2022/05/13 11:01:50;;;;;;;1.48;0.40;;;20.70;92.80;;;;;;4955524;28;20232;-73
2022/05/13 11:04:28;;;;;;;7.68;1.08;;;20.80;93.20;;;;;;4955426;28;20212;-72
2022/05/13 11:07:10;;;;;;;1.58;0.50;;;20.60;92.60;;;;;;4955358;28;20204;-73
2022/05/13 11:09:47;;;;;;;1.27;0.40;;;20.50;92.90;;;;;;4954663;28;20248;-73
2022/05/13 11:12:22;;;;;;;0.75;0.47;;;20.90;93.90;;;;;;4955372;28;20248;-73
2022/05/13 11:15:02;;;;;;;12.38;1.00;;;21.00;93.20;;;;;;4955496;28;20210;-73
2022/05/13 11:17:50;;;;;;;2.33;0.47;;;21.20;93.40;;;;;;4954939;28;20214;-73
2022/05/13 11:20:28;;;;;;;1.83;0.40;;;21.30;92.90;;;;;;4954080;28;20212;-74
2022/05/13 11:23:06;;;;;;;1.27;0.45;;;20.90;93.20;;;;;;4955466;28;20208;-75
2022/05/13 11:25:57;;;;;;;2.80;0.75;;;21.00;93.10;;;;;;4954864;28;20211;-75
2022/05/13 11:28:50;;;;;;;2.05;0.60;;;20.80;93.30;;;;;;4955109;28;20208;-74
2022/05/13 11:31:34;;;;;;;0.77;0.30;;;21.10;93.20;;;;;;4953554;28;20243;-74
2022/05/13 11:34:09;;;;;;;1.75;0.50;;;21.40;93.80;;;;;;4955080;28;20567;-73
2022/05/13 11:36:46;;;;;;;1.02;0.40;;;21.60;93.30;;;;;;4954912;28;20208;-73
2022/05/13 11:39:41;;;;;;;1.02;0.47;;;21.70;92.80;;;;;;4954533;28;20590;-70
2022/05/13 11:42:25;;;;;;;2.95;0.60;;;22.00;92.80;;;;;;4951024;28;20263;-72
2022/05/13 11:45:09;;;;;;;1.42;0.80;;;21.90;92.50;;;;;;4955072;28;20211;-72
2022/05/13 11:47:45;;;;;;;2.28;0.43;;;22.10;93.20;;;;;;4954285;28;20212;-73
2022/05/13 11:50:12;;;;;;;1.92;0.60;;;22.10;92.60;;;;;;4954537;28;20215;-72
2022/05/13 11:52:49;;;;;;;2.67;0.80;;;21.90;92.10;;;;;;4969064;28;20257;-72
2022/05/13 11:55:19;;;;;;;2.42;0.50;;;21.80;92.50;;;;;;4964187;28;20215;-72
2022/05/13 11:57:48;;;;;;;0.95;0.43;;;21.80;92.10;;;;;;4956276;28;20217;-72
2022/05/13 12:00:24;;;;;;;1.52;0.43;;;21.80;92.40;;;;;;4959126;28;20207;-72
2022/05/13 12:02:54;;;;;;;2.25;0.90;;;21.80;92.40;;;;;;4953708;28;20204;-71
2022/05/13 12:05:33;;;;;;;4.10;0.40;;;21.80;92.40;;;;;;4954817;28;20212;-71
2022/05/13 12:08:18;;;;;;;1.35;0.50;;;21.70;93.00;;;;;;4954191;28;20204;-70
2022/05/13 12:10:55;;;;;;;3.05;0.60;;;21.50;92.80;;;;;;4955261;28;20682;-73
2022/05/13 12:13:31;;;;;;;4.20;0.52;;;21.00;93.20;;;;;;4955751;28;20214;-73
2022/05/13 12:16:12;;;;;;;2.35;0.50;;;21.00;93.50;;;;;;4955411;28;20211;-73
2022/05/13 12:18:46;;;;;;;1.63;0.40;;;21.10;92.90;;;;;;4955749;28;20216;-74
2022/05/13 12:21:22;;;;;;;3.13;0.73;;;21.00;92.90;;;;;;4955178;28;20228;-73
2022/05/13 12:23:56;;;;;;;4.18;0.60;;;21.30;93.60;;;;;;4955369;29;20223;-73
2022/05/13 12:26:25;;;;;;;1.50;0.57;;;21.50;93.20;;;;;;4955354;28;20243;-74
2022/05/13 12:29:17;;;;;;;1.40;0.50;;;21.20;92.60;;;;;;4955246;28;20212;-73
2022/05/13 12:32:09;;;;;;;8.43;1.00;;;21.00;93.20;;;;;;4953311;28;20240;-73
2022/05/13 12:37:42;;;;;;;3.85;0.50;;;21.20;94.70;;;;;;4955127;29;20674;-73
2022/05/13 12:40:18;;;;;;;2.15;0.52;;;21.00;94.40;;;;;;4955114;28;20220;-73
2022/05/13 12:42:56;;;;;;;3.38;0.82;;;21.00;94.30;;;;;;4955007;28;20244;-73
2022/05/13 12:45:42;;;;;;;3.30;0.50;;;20.70;93.70;;;;;;4954891;28;20314;-73
2022/05/13 12:48:16;;;;;;;0.90;0.52;;;20.80;93.80;;;;;;4955138;28;20544;-73
2022/05/13 12:50:45;;;;;;;1.52;0.65;;;21.00;93.60;;;;;;4955006;28;20269;-74
2022/05/13 12:53:42;;;;;;;6.13;0.70;;;21.10;93.70;;;;;;4955277;28;20204;-72
2022/05/13 12:56:17;;;;;;;1.98;0.75;;;21.00;93.50;;;;;;4955035;28;20219;-73
2022/05/13 12:58:47;;;;;;;5.70;0.57;;;21.30;93.80;;;;;;4955064;28;20218;-72
2022/05/13 13:01:16;;;;;;;1.48;0.70;;;21.40;94.40;;;;;;4955145;28;20369;-73
2022/05/13 13:03:47;;;;;;;1.70;0.40;;;21.20;93.20;;;;;;4954884;28;20631;-72
2022/05/13 13:06:19;;;;;;;2.00;0.60;;;21.20;93.60;;;;;;4954880;28;20243;-73
2022/05/13 13:08:49;;;;;;;3.00;0.60;;;20.90;94.00;;;;;;4954991;28;20208;-73
2022/05/13 13:11:29;;;;;;;2.30;1.10;;;20.80;93.80;;;;;;4954718;28;20252;-72
2022/05/13 13:14:02;;;;;;;2.35;0.50;;;20.80;94.10;;;;;;4954885;28;20212;-73
2022/05/13 13:16:37;;;;;;;2.50;0.70;;;21.10;93.90;;;;;;4954899;28;20215;-72
2022/05/13 13:19:10;;;;;;;3.60;0.50;;;21.10;94.40;;;;;;4955008;28;20207;-74
2022/05/13 13:21:38;;;;;;;3.60;0.57;;;21.00;93.50;;;;;;4954569;28;20232;-73
2022/05/13 13:24:12;;;;;;;2.00;0.82;;;21.20;94.10;;;;;;4954846;28;20222;-74
2022/05/13 13:26:41;;;;;;;1.90;0.57;;;21.20;93.30;;;;;;4954728;28;20211;-73
2022/05/13 13:29:09;;;;;;;3.83;0.70;;;21.00;93.40;;;;;;4954748;28;20255;-73
2022/05/13 13:31:42;;;;;;;1.45;0.40;;;20.80;93.60;;;;;;4954864;28;20298;-73
2022/05/13 13:34:23;;;;;;;1.48;0.65;;;20.90;94.10;;;;;;4954774;28;20216;-73
2022/05/13 13:36:50;;;;;;;3.47;0.60;;;21.00;93.30;;;;;;4954775;28;20659;-72
2022/05/13 13:39:16;;;;;;;3.22;0.65;;;20.90;93.80;;;;;;4954447;28;20215;-73
2022/05/13 13:41:48;;;;;;;1.17;0.68;;;21.00;93.60;;;;;;4954209;28;20231;-73
2022/05/13 13:44:15;;;;;;;2.63;0.50;;;21.00;93.30;;;;;;4958597;28;20212;-73
2022/05/13 13:46:44;;;;;;;5.55;0.50;;;21.00;93.90;;;;;;4958264;28;20212;-72
2022/05/13 13:49:19;;;;;;;2.53;0.57;;;21.20;94.50;;;;;;4958337;28;20214;-73
2022/05/13 13:51:50;;;;;;;0.60;0.45;;;21.20;94.20;;;;;;4958824;28;20327;-73
2022/05/13 13:54:19;;;;;;;1.85;0.50;;;21.50;93.90;;;;;;4957812;28;20207;-73
2022/05/13 13:56:56;;;;;;;3.20;0.93;;;21.50;93.40;;;;;;4957585;28;20216;-73
2022/05/13 13:59:32;;;;;;;2.42;0.55;;;21.60;93.60;;;;;;4957999;28;20659;-73
2022/05/13 14:01:59;;;;;;;1.35;0.70;;;21.50;93.90;;;;;;4957850;28;20232;-73
2022/05/13 14:04:28;;;;;;;4.13;0.93;;;21.40;93.90;;;;;;4957990;28;20298;-73
2022/05/13 14:06:58;;;;;;;1.83;0.50;;;21.10;93.10;;;;;;4958251;28;20212;-73
2022/05/13 14:09:31;;;;;;;1.45;0.73;;;21.10;94.00;;;;;;4958091;28;20290;-73
2022/05/13 14:12:00;;;;;;;1.38;0.63;;;21.20;94.30;;;;;;4957772;28;20235;-73
2022/05/13 14:14:29;;;;;;;1.77;0.60;;;21.20;93.70;;;;;;4957931;28;20215;-72
2022/05/13 14:17:03;;;;;;;3.33;0.45;;;21.20;93.80;;;;;;4957862;28;20204;-73
2022/05/13 14:19:32;;;;;;;1.80;0.50;;;21.10;93.90;;;;;;4957774;28;20630;-73
2022/05/13 14:22:02;;;;;;;2.58;0.50;;;21.00;93.80;;;;;;4957856;28;20224;-73
2022/05/13 14:24:35;;;;;;;0.57;0.40;;;21.00;93.80;;;;;;4957801;28;20214;-72
2022/05/13 14:27:11;;;;;;;2.80;0.50;;;21.20;93.50;;;;;;4957659;28;20212;-73
2022/05/13 14:29:38;;;;;;;1.83;0.50;;;21.40;93.60;;;;;;4957271;28;20569;-72
2022/05/13 14:32:08;;;;;;;1.10;0.55;;;21.60;94.10;;;;;;4957484;28;20255;-72
2022/05/13 14:34:36;;;;;;;0.90;0.60;;;21.60;93.50;;;;;;4957392;28;20208;-73
2022/05/13 14:37:06;;;;;;;3.67;0.73;;;21.50;93.10;;;;;;4957675;28;20215;-73
2022/05/13 14:39:51;;;;;;;6.05;0.57;;;21.30;93.00;;;;;;4957372;28;20223;-72
2022/05/13 14:42:29;;;;;;;2.70;0.40;;;21.30;94.00;;;;;;4957148;28;20234;-72
2022/05/13 14:44:57;;;;;;;2.05;0.82;;;21.40;94.20;;;;;;4957119;28;20671;-72
2022/05/13 14:47:36;;;;;;;3.30;0.50;;;21.50;93.90;;;;;;4957519;28;20234;-73
2022/05/13 14:50:16;;;;;;;1.90;0.68;;;21.60;94.00;;;;;;4957528;28;20216;-72
2022/05/13 14:52:46;;;;;;;1.45;0.50;;;21.60;93.20;;;;;;4956847;28;20247;-73
2022/05/13 14:55:17;;;;;;;0.98;0.45;;;21.60;93.80;;;;;;4957025;28;20246;-72
2022/05/13 14:57:45;;;;;;;0.55;0.40;;;21.50;93.30;;;;;;4956911;28;20218;-72
2022/05/13 15:00:17;;;;;;;0.80;0.40;;;21.40;93.20;;;;;;4956964;28;20294;-72
2022/05/13 15:03:00;;;;;;;4.22;0.63;;;21.30;93.50;;;;;;4956749;28;20227;-72
2022/05/13 15:05:36;;;;;;;1.95;0.30;;;21.20;92.80;;;;;;4956906;28;20245;-73
2022/05/13 15:08:42;;;;;;;2.30;0.45;;;20.90;93.20;;;;;;4956764;28;20219;-73
2022/05/13 15:11:10;;;;;;;1.02;0.40;;;20.70;93.80;;;;;;4956496;28;20703;-73
2022/05/13 15:13:39;;;;;;;1.05;0.40;;;20.90;93.80;;;;;;4956609;28;20265;-74
2022/05/13 15:16:07;;;;;;;3.70;1.08;;;20.90;94.00;;;;;;4956792;28;20208;-72
2022/05/13 15:18:36;;;;;;;1.88;0.50;;;20.80;94.00;;;;;;4956509;28;20243;-73
2022/05/13 15:21:03;;;;;;;1.65;0.57;;;20.70;93.50;;;;;;4956370;28;20578;-72
2022/05/13 15:23:30;;;;;;;1.92;0.40;;;20.60;94.30;;;;;;4956559;28;20215;-72
2022/05/13 15:25:57;;;;;;;1.90;0.45;;;20.80;93.80;;;;;;4956327;28;20239;-73
2022/05/13 15:28:24;;;;;;;1.85;0.60;;;20.80;93.90;;;;;;4956576;28;20208;-72
2022/05/13 15:30:55;;;;;;;2.58;0.40;;;20.80;93.60;;;;;;4956405;28;20231;-73
2022/05/13 15:33:23;;;;;;;2.55;0.60;;;20.90;93.60;;;;;;4956361;28;20714;-72
2022/05/13 15:35:51;;;;;;;1.15;0.50;;;21.00;93.60;;;;;;4956440;28;20215;-73
2022/05/13 15:38:17;;;;;;;4.07;0.50;;;20.90;93.30;;;;;;4956231;28;20671;-72
2022/05/13 15:40:45;;;;;;;2.95;0.60;;;20.80;93.70;;;;;;4955893;28;20231;-72
2022/05/13 15:43:12;;;;;;;0.60;0.40;;;20.80;93.50;;;;;;4956142;28;20299;-72
2022/05/13 15:45:42;;;;;;;1.77;0.40;;;20.80;93.50;;;;;;4955841;28;20663;-72
2022/05/13 15:48:11;;;;;;;2.03;0.50;;;20.70;93.80;;;;;;4955496;28;20208;-72
2022/05/13 15:53:22;;;;;;;1.67;0.40;;;21.00;94.00;;;;;;4955837;29;20243;-72
2022/05/13 15:55:52;;;;;;;2.78;0.50;;;21.00;94.30;;;;;;4955074;28;20219;-72
2022/05/13 15:58:27;;;;;;;3.45;0.68;;;20.90;94.00;;;;;;4955391;28;20271;-72
2022/05/13 16:00:54;;;;;;;1.50;0.60;;;20.80;94.10;;;;;;4955498;28;20224;-72
2022/05/13 16:03:22;;;;;;;1.17;0.50;;;21.00;94.00;;;;;;4949413;28;20677;-72
2022/05/13 16:05:49;;;;;;;1.95;0.50;;;21.00;94.40;;;;;;4941141;28;20260;-72
2022/05/13 16:08:16;;;;;;;2.88;0.50;;;21.00;93.70;;;;;;4941316;29;20264;-72
2022/05/13 16:10:43;;;;;;;3.22;0.40;;;21.10;93.60;;;;;;4948750;28;21853;-72
2022/05/13 16:13:17;;;;;;;1.95;0.47;;;21.00;94.20;;;;;;4949339;28;20238;-72
2022/05/13 16:15:48;;;;;;;1.73;0.70;;;20.80;93.70;;;;;;4947694;29;20216;-73
2022/05/13 16:18:18;;;;;;;1.38;0.60;;;20.80;94.20;;;;;;4946773;29;20208;-72
2022/05/13 16:20:47;;;;;;;1.80;0.50;;;20.90;93.90;;;;;;4946083;28;20227;-72
2022/05/13 16:23:17;;;;;;;2.65;0.50;;;20.80;94.20;;;;;;4944929;29;20227;-72
2022/05/13 16:25:45;;;;;;;2.13;0.45;;;20.70;94.50;;;;;;4941806;28;20303;-72
2022/05/13 16:28:13;;;;;;;1.77;0.63;;;20.70;94.00;;;;;;4939679;29;20671;-71
2022/05/13 16:30:40;;;;;;;2.20;0.50;;;20.80;94.20;;;;;;4945308;28;20212;-72
2022/05/13 16:33:08;;;;;;;1.60;0.52;;;21.00;94.30;;;;;;4946939;29;20262;-73
2022/05/13 16:35:35;;;;;;;1.20;0.60;;;21.00;94.00;;;;;;4941326;29;20218;-71
2022/05/13 16:38:03;;;;;;;1.23;0.47;;;20.90;93.90;;;;;;4951559;29;20222;-71
2022/05/13 16:40:33;;;;;;;1.42;0.50;;;20.80;94.00;;;;;;4954869;28;20216;-72
2022/05/13 16:43:01;;;;;;;2.08;0.52;;;20.70;94.40;;;;;;4954135;28;20216;-71
2022/05/13 16:45:28;;;;;;;0.80;0.40;;;20.70;93.80;;;;;;4955158;28;20682;-71
2022/05/13 16:47:55;;;;;;;4.95;1.85;;;20.60;93.90;;;;;;4955033;28;20212;-71
2022/05/13 16:50:24;;;;;;;2.33;0.60;;;20.60;94.50;;;;;;4955141;28;20559;-72
2022/05/13 16:52:53;;;;;;;2.47;0.50;;;20.60;94.10;;;;;;4955196;28;20232;-74
2022/05/13 16:55:23;;;;;;;0.80;0.45;;;20.60;94.00;;;;;;4954915;28;20223;-71
2022/05/13 16:57:50;;;;;;;2.70;0.70;;;20.70;94.00;;;;;;4955257;28;20208;-72
2022/05/13 17:00:19;;;;;;;1.83;0.50;;;20.80;94.00;;;;;;4955153;28;20218;-72
2022/05/13 17:02:46;;;;;;;3.15;0.70;;;20.80;93.70;;;;;;4954904;28;20239;-73
2022/05/13 17:05:16;;;;;;;1.27;0.40;;;20.90;93.70;;;;;;4955229;28;20211;-73
2022/05/13 17:07:43;;;;;;;4.45;0.60;;;20.90;94.00;;;;;;4955299;28;20212;-72
2022/05/13 17:19:15;;;;;;;2.90;0.70;;;20.50;93.60;;;;;;4958902;29;20206;-72
2022/05/13 17:21:12;;;;;;;2.80;0.60;;;20.50;93.40;;;;;;4958746;28;20235;-74
2022/05/13 17:23:39;;;;;;;1.80;0.57;;;20.50;93.80;;;;;;4958924;28;20212;-74
2022/05/13 17:26:06;;;;;;;2.00;0.57;;;20.50;93.70;;;;;;4958689;28;20259;-73
2022/05/13 17:28:34;;;;;;;2.50;0.70;;;20.30;93.90;;;;;;4958684;28;20212;-74
2022/05/13 17:31:01;;;;;;;1.48;0.40;;;20.40;94.20;;;;;;4951996;28;20228;-73
2022/05/13 17:33:28;;;;;;;2.60;0.60;;;20.30;93.90;;;;;;4947538;29;20233;-73
2022/05/13 17:35:57;;;;;;;2.00;0.50;;;20.30;93.90;;;;;;4946547;28;20205;-74
2022/05/13 17:38:26;;;;;;;1.38;0.50;;;20.20;94.20;;;;;;4958070;28;20215;-74
2022/05/13 17:40:53;;;;;;;1.48;0.70;;;20.20;94.00;;;;;;4958001;28;20346;-74
2022/05/13 17:43:20;;;;;;;1.27;0.60;;;20.30;94.80;;;;;;4957501;28;20215;-73
2022/05/13 17:45:49;;;;;;;1.70;0.70;;;20.30;94.80;;;;;;4958273;28;20215;-74
2022/05/13 17:48:17;;;;;;;4.25;0.55;;;20.30;94.70;;;;;;4958228;28;20219;-74
2022/05/13 17:50:46;;;;;;;1.65;0.50;;;20.20;94.70;;;;;;4958029;28;20721;-73
2022/05/13 17:53:17;;;;;;;2.10;0.95;;;20.30;94.70;;;;;;4957913;28;20282;-74
2022/05/13 17:55:44;;;;;;;3.10;0.47;;;20.20;94.60;;;;;;4957683;28;20216;-73
2022/05/13 17:58:11;;;;;;;4.63;0.50;;;20.10;94.30;;;;;;4957781;28;20671;-73
2022/05/13 18:00:38;;;;;;;1.00;0.50;;;19.90;94.10;;;;;;4957666;28;20204;-72
2022/05/13 18:03:08;;;;;;;2.63;0.60;;;19.70;94.40;;;;;;4957776;28;20208;-71
2022/05/13 18:05:35;;;;;;;2.33;1.27;;;19.70;94.40;;;;;;4957836;28;20214;-72
2022/05/13 18:08:02;;;;;;;3.35;0.70;;;19.60;94.10;;;;;;4957497;28;20214;-72
2022/05/13 18:10:29;;;;;;;0.57;0.37;;;19.50;94.00;;;;;;4957423;28;20208;-72
2022/05/13 18:12:56;;;;;;;1.77;0.68;;;19.50;94.00;;;;;;4957463;28;20236;-72
2022/05/13 18:15:23;;;;;;;2.53;0.70;;;19.50;94.40;;;;;;4957566;28;20258;-74
2022/05/13 18:17:50;;;;;;;2.57;0.50;;;19.50;94.50;;;;;;4957476;28;20212;-72
2022/05/13 18:20:19;;;;;;;0.60;0.40;;;19.40;94.40;;;;;;4957567;28;20204;-74
2022/05/13 18:22:46;;;;;;;1.70;0.30;;;19.30;94.60;;;;;;4957179;28;20228;-72
2022/05/13 18:25:13;;;;;;;0.60;0.30;;;19.30;94.60;;;;;;4952015;28;20212;-74
2022/05/13 18:27:40;;;;;;;3.20;0.60;;;19.30;94.30;;;;;;4941539;29;20209;-73
2022/05/13 18:30:08;;;;;;;1.73;0.60;;;19.30;95.10;;;;;;4948464;28;20216;-73
2022/05/13 18:32:35;;;;;;;2.43;0.50;;;19.30;95.10;;;;;;4949638;28;20228;-74
2022/05/13 18:35:02;;;;;;;1.77;0.50;;;19.10;94.60;;;;;;4951814;28;20200;-73
2022/05/13 18:37:30;;;;;;;2.83;0.70;;;19.00;94.70;;;;;;4943330;28;20272;-74
2022/05/13 18:48:14;;;;;;;1.83;0.40;;;18.90;95.20;;;;;;4944674;29;20214;-74
2022/05/13 18:50:42;;;;;;;1.17;0.40;;;18.80;95.40;;;;;;4941267;28;20563;-73
2022/05/13 18:53:10;;;;;;;3.47;0.60;;;18.70;95.70;;;;;;4946093;28;20365;-71
2022/05/13 18:55:36;;;;;;;2.10;0.50;;;18.60;95.80;;;;;;4950735;29;20326;-72
2022/05/13 18:58:03;;;;;;;3.23;0.60;;;18.50;95.90;;;;;;4944345;28;20218;-72
2022/05/13 19:00:30;;;;;;;3.20;1.17;;;18.30;96.20;;;;;;4946195;28;20223;-71
2022/05/13 19:02:57;;;;;;;3.10;1.40;;;18.30;96.40;;;;;;4948080;28;20216;-72
2022/05/13 19:05:24;;;;;;;3.90;0.93;;;18.20;96.60;;;;;;4949615;29;20215;-71
2022/05/13 19:07:50;;;;;;;2.70;0.63;;;18.10;96.70;;;;;;4949375;29;20222;-74
2022/05/13 19:10:19;;;;;;;1.83;0.60;;;18.20;96.70;;;;;;4946148;28;20216;-72
2022/05/13 19:12:45;;;;;;;2.27;0.80;;;18.10;96.80;;;;;;4949325;28;20591;-71
2022/05/13 19:15:12;;;;;;;2.27;0.50;;;18.00;96.50;;;;;;4950307;28;20250;-71
2022/05/13 19:17:41;;;;;;;3.67;0.60;;;17.80;96.70;;;;;;4944627;29;20220;-72
2022/05/13 19:20:10;;;;;;;2.67;0.47;;;17.70;97.00;;;;;;4947759;28;20235;-72
2022/05/13 19:22:38;;;;;;;1.53;0.40;;;17.60;97.10;;;;;;4944822;28;20235;-73
2022/05/13 19:25:07;;;;;;;1.10;0.50;;;17.50;97.10;;;;;;4944586;28;20247;-72
2022/05/13 19:27:36;;;;;;;2.07;0.57;;;17.40;97.10;;;;;;4942461;29;20571;-72
2022/05/13 19:30:03;;;;;;;1.60;0.70;;;17.40;97.40;;;;;;4947266;29;20200;-73
2022/05/13 19:32:31;;;;;;;3.27;0.50;;;17.30;97.40;;;;;;4947138;29;20234;-72
2022/05/13 19:34:58;;;;;;;3.23;0.63;;;17.20;97.50;;;;;;4943714;29;20743;-71
2022/05/13 19:37:26;;;;;;;1.57;0.50;;;17.20;97.50;;;;;;4943663;29;20204;-71
2022/05/13 19:39:53;;;;;;;4.17;0.70;;;17.20;97.70;;;;;;4948025;28;20212;-72
2022/05/13 19:42:20;;;;;;;4.17;0.60;;;17.20;98.00;;;;;;4947766;29;20240;-72
2022/05/13 19:44:48;;;;;;;3.43;0.77;;;17.00;97.60;;;;;;4948728;28;20209;-72
2022/05/13 19:47:16;;;;;;;1.47;0.50;;;17.00;98.30;;;;;;4948187;29;20211;-72
2022/05/13 19:49:43;;;;;;;3.83;0.47;;;17.00;97.10;;;;;;4944784;28;20306;-72
2022/05/13 19:52:10;;;;;;;2.87;0.60;;;16.90;96.80;;;;;;4945568;29;20239;-72
2022/05/13 19:54:37;;;;;;;0.60;0.43;;;16.90;96.50;;;;;;4946362;29;20255;-72
2022/05/13 19:57:05;;;;;;;1.27;0.50;;;16.80;96.30;;;;;;4940989;28;20215;-72
2022/05/13 19:59:32;;;;;;;1.53;0.60;;;16.70;96.10;;;;;;4951684;28;20247;-71
2022/05/13 20:02:01;;;;;;;1.13;0.40;;;16.70;96.20;;;;;;4950817;28;20229;-72
2022/05/13 20:04:28;;;;;;;2.37;0.47;;;16.60;96.10;;;;;;4946304;29;20218;-72
2022/05/13 20:12:34;;;;;;;0.70;0.40;;;16.50;96.20;;;;;;4938872;29;20239;-73
2022/05/13 20:15:01;;;;;;;0.90;0.50;;;16.50;96.20;;;;;;4939758;29;20729;-72
2022/05/13 20:17:29;;;;;;;3.47;0.73;;;16.50;96.30;;;;;;4937729;29;20222;-72
2022/05/13 20:25:25;;;;;;;1.70;0.50;;;16.40;96.20;;;;;;4936167;29;20345;-72
2022/05/13 20:27:51;;;;;;;1.87;0.70;;;16.40;96.40;;;;;;4935431;29;20211;-72
2022/05/13 20:30:19;;;;;;;1.53;0.47;;;16.30;96.60;;;;;;4936350;29;20317;-72
2022/05/13 20:32:48;;;;;;;2.00;1.37;;;16.30;96.50;;;;;;4936067;29;20232;-72
2022/05/13 20:35:16;;;;;;;1.37;0.50;;;16.20;96.30;;;;;;4936108;29;20242;-72
2022/05/13 20:37:43;;;;;;;3.00;0.60;;;16.20;96.60;;;;;;4935910;29;20720;-71
2022/05/13 20:40:12;;;;;;;3.07;0.50;;;16.20;96.60;;;;;;4935849;29;20216;-72
2022/05/13 20:42:39;;;;;;;1.77;0.63;;;16.00;96.50;;;;;;4935513;29;20231;-71
2022/05/13 20:45:07;;;;;;;0.70;0.40;;;15.90;96.70;;;;;;4935564;29;20205;-72
2022/05/13 20:47:34;;;;;;;1.97;0.50;;;15.80;96.40;;;;;;4935108;29;20213;-72
2022/05/13 20:50:02;;;;;;;0.77;0.50;;;15.90;96.40;;;;;;4935236;29;20209;-72
